createdAt,value
2019-04-14T00:00:55.373Z,2.82
2019-04-14T00:01:54.788Z,2.74
2019-04-14T00:02:55.490Z,2.76
2019-04-14T00:03:54.737Z,2.77
2019-04-14T00:04:55.080Z,2.84
2019-04-14T00:05:54.689Z,2.84
2019-04-14T00:06:54.822Z,2.87
2019-04-14T00:07:55.915Z,2.81
2019-04-14T00:08:54.610Z,2.79
2019-04-14T00:09:54.588Z,2.76
2019-04-14T00:10:55.071Z,2.76
2019-04-14T00:11:54.874Z,2.79
2019-04-14T00:12:55.554Z,2.79
2019-04-14T00:13:54.610Z,2.81
2019-04-14T00:14:55.406Z,2.74
2019-04-14T00:15:55.020Z,2.88
2019-04-14T00:16:55.320Z,2.81
2019-04-14T00:17:54.613Z,2.77
2019-04-14T00:18:55.452Z,2.79
2019-04-14T00:19:54.467Z,2.84
2019-04-14T00:20:55.518Z,2.82
2019-04-14T00:21:54.482Z,2.85
2019-04-14T00:22:55.283Z,2.88
2019-04-14T00:23:54.479Z,2.87
2019-04-14T00:24:55.372Z,2.89
2019-04-14T00:25:54.451Z,2.97
2019-04-14T00:26:55.211Z,2.95
2019-04-14T00:27:54.407Z,2.88
2019-04-14T00:28:54.122Z,2.88
2019-04-14T00:29:54.560Z,2.87
2019-04-14T00:30:54.075Z,2.98
2019-04-14T00:31:55.350Z,2.98
2019-04-14T00:32:55.146Z,2.97
2019-04-14T00:33:54.290Z,2.95
2019-04-14T00:34:54.983Z,2.94
2019-04-14T00:35:53.998Z,3.05
2019-04-14T00:36:54.501Z,3.05
2019-04-14T00:37:53.898Z,3.02
2019-04-14T00:38:54.272Z,3.06
2019-04-14T00:39:53.872Z,2.94
2019-04-14T00:40:54.050Z,2.91
2019-04-14T00:41:58.221Z,3.00
2019-04-14T00:42:53.891Z,3.02
2019-04-14T00:43:54.862Z,2.97
2019-04-14T00:44:53.858Z,2.97
2019-04-14T00:45:56.752Z,3.02
2019-04-14T00:46:53.892Z,3.00
2019-04-14T00:48:01.190Z,3.03
2019-04-14T00:48:53.948Z,3.05
2019-04-14T00:49:53.612Z,3.05
2019-04-14T00:50:53.937Z,3.00
2019-04-14T00:51:54.701Z,2.98
2019-04-14T00:52:54.512Z,2.94
2019-04-14T00:53:53.647Z,2.91
2019-04-14T00:54:54.339Z,2.95
2019-04-14T00:55:53.461Z,2.89
2019-04-14T00:56:54.152Z,3.03
2019-04-14T00:57:53.436Z,3.05
2019-04-14T00:58:53.935Z,3.00
2019-04-14T00:59:53.361Z,2.89
2019-04-14T01:00:53.787Z,3.02
2019-04-14T01:01:53.320Z,2.91
2019-04-14T01:02:53.699Z,2.91
2019-04-14T01:03:53.271Z,2.95
2019-04-14T01:04:53.454Z,2.95
2019-04-14T01:05:53.214Z,3.02
2019-04-14T01:06:53.377Z,2.97
2019-04-14T01:07:54.350Z,2.95
2019-04-14T01:08:53.410Z,3.03
2019-04-14T01:09:53.219Z,2.97
2019-04-14T01:10:54.037Z,3.02
2019-04-14T01:11:53.166Z,2.97
2019-04-14T01:12:53.930Z,2.94
2019-04-14T01:13:53.067Z,3.03
2019-04-14T01:14:53.890Z,3.03
2019-04-14T01:16:00.555Z,3.02
2019-04-14T01:16:53.845Z,3.02
2019-04-14T01:17:52.992Z,3.00
2019-04-14T01:18:53.738Z,3.02
2019-04-14T01:19:52.880Z,2.91
2019-04-14T01:20:53.631Z,2.98
2019-04-14T01:21:52.835Z,2.94
2019-04-14T01:22:53.172Z,2.89
2019-04-14T01:23:52.778Z,2.98
2019-04-14T01:24:53.270Z,3.02
2019-04-14T01:25:52.728Z,3.03
2019-04-14T01:26:52.920Z,3.09
2019-04-14T01:27:53.747Z,3.06
2019-04-14T01:28:52.693Z,3.07
2019-04-14T01:29:53.721Z,3.06
2019-04-14T01:30:52.610Z,3.09
2019-04-14T01:31:53.609Z,3.07
2019-04-14T01:32:52.562Z,2.92
2019-04-14T01:33:53.385Z,2.95
2019-04-14T01:34:53.924Z,2.98
2019-04-14T01:35:53.134Z,3.07
2019-04-14T01:36:52.456Z,3.00
2019-04-14T01:37:52.908Z,2.97
2019-04-14T01:38:53.511Z,3.02
2019-04-14T01:39:52.538Z,2.92
2019-04-14T01:40:53.142Z,2.98
2019-04-14T01:41:52.344Z,3.00
2019-04-14T01:42:52.758Z,3.02
2019-04-14T01:43:52.277Z,3.00
2019-04-14T01:44:52.545Z,3.00
2019-04-14T01:46:03.448Z,2.98
2019-04-14T01:46:52.216Z,3.06
2019-04-14T01:47:53.346Z,3.00
2019-04-14T01:48:52.165Z,2.89
2019-04-14T01:49:53.045Z,2.94
2019-04-14T01:50:52.121Z,3.07
2019-04-14T01:51:52.820Z,2.97
2019-04-14T01:52:52.281Z,2.95
2019-04-14T01:53:53.140Z,2.92
2019-04-14T01:54:52.022Z,3.02
2019-04-14T01:55:52.697Z,2.91
2019-04-14T01:56:51.968Z,2.95
2019-04-14T01:57:52.498Z,2.94
2019-04-14T01:58:51.911Z,2.95
2019-04-14T01:59:52.520Z,3.02
2019-04-14T02:00:52.987Z,3.00
2019-04-14T02:01:52.110Z,3.12
2019-04-14T02:02:52.951Z,3.05
2019-04-14T02:03:52.063Z,3.07
2019-04-14T02:04:52.823Z,3.09
2019-04-14T02:05:51.847Z,3.05
2019-04-14T02:06:52.735Z,3.16
2019-04-14T02:07:51.702Z,3.03
2019-04-14T02:08:52.213Z,3.06
2019-04-14T02:09:51.655Z,3.07
2019-04-14T02:10:52.071Z,3.10
2019-04-14T02:11:51.603Z,3.07
2019-04-14T02:12:51.874Z,3.09
2019-04-14T02:13:52.793Z,3.09
2019-04-14T02:14:51.707Z,3.12
2019-04-14T02:15:52.747Z,3.13
2019-04-14T02:16:56.099Z,3.06
2019-04-14T02:17:52.434Z,3.07
2019-04-14T02:18:53.416Z,3.05
2019-04-14T02:19:52.409Z,3.09
2019-04-14T02:20:51.380Z,3.07
2019-04-14T02:21:52.013Z,3.15
2019-04-14T02:22:51.333Z,3.10
2019-04-14T02:23:51.865Z,3.05
2019-04-14T02:24:52.688Z,3.09
2019-04-14T02:25:51.491Z,3.09
2019-04-14T02:26:52.515Z,3.05
2019-04-14T02:27:51.492Z,3.10
2019-04-14T02:28:51.191Z,3.09
2019-04-14T02:29:51.649Z,3.12
2019-04-14T02:31:00.206Z,3.09
2019-04-14T02:32:20.870Z,3.12
2019-04-14T02:34:26.021Z,3.06
2019-04-14T02:35:20.609Z,3.13
2019-04-14T02:36:21.862Z,3.07
2019-04-14T02:38:29.554Z,3.06
2019-04-14T02:39:22.331Z,3.10
2019-04-14T02:40:21.703Z,3.10
2019-04-14T02:41:25.042Z,3.10
2019-04-14T02:42:28.287Z,3.09
2019-04-14T02:43:23.808Z,3.05
2019-04-14T02:45:19.309Z,3.12
2019-04-14T02:46:22.077Z,3.09
2019-04-14T02:47:36.674Z,3.06
2019-04-14T02:48:29.090Z,3.05
2019-04-14T02:49:12.437Z,3.02
2019-04-14T02:50:14.225Z,3.06
2019-04-14T02:51:20.817Z,3.06
2019-04-14T02:55:40.987Z,3.00
2019-04-14T02:56:30.961Z,3.06
2019-04-14T02:57:20.798Z,2.95
2019-04-14T02:58:18.270Z,2.98
2019-04-14T02:59:13.284Z,2.92
2019-04-14T03:00:25.318Z,3.02
2019-04-14T03:01:31.733Z,2.98
2019-04-14T03:03:27.798Z,2.97
2019-04-14T03:04:21.625Z,3.05
2019-04-14T03:06:14.576Z,2.95
2019-04-14T03:07:23.163Z,2.94
2019-04-14T03:08:22.258Z,2.97
2019-04-14T03:09:23.918Z,2.97
2019-04-14T03:10:20.383Z,2.94
2019-04-14T03:11:20.772Z,2.97
2019-04-14T03:12:19.078Z,2.95
2019-04-14T03:14:15.547Z,2.98
2019-04-14T03:15:16.910Z,2.94
2019-04-14T03:17:24.785Z,2.92
2019-04-14T03:19:13.922Z,3.00
2019-04-14T03:20:20.084Z,2.95
2019-04-14T03:21:19.789Z,2.95
2019-04-14T03:23:17.278Z,3.02
2019-04-14T03:25:08.133Z,2.97
2019-04-14T03:26:15.557Z,2.92
2019-04-14T03:27:15.275Z,2.98
2019-04-14T03:28:17.583Z,2.97
2019-04-14T03:29:19.542Z,3.02
2019-04-14T03:30:33.994Z,2.97
2019-04-14T03:31:49.563Z,2.92
2019-04-14T03:32:40.125Z,2.95
2019-04-14T03:33:32.064Z,2.92
2019-04-14T03:34:34.877Z,3.00
2019-04-14T03:38:18.463Z,2.85
2019-04-14T03:39:17.009Z,2.87
2019-04-14T03:40:23.804Z,2.94
2019-04-14T03:42:21.309Z,2.87
2019-04-14T03:43:19.560Z,2.89
2019-04-14T03:44:18.614Z,2.94
2019-04-14T03:45:14.362Z,2.89
2019-04-14T03:46:17.755Z,2.87
2019-04-14T03:47:25.463Z,2.88
2019-04-14T03:49:26.918Z,2.92
2019-04-14T03:50:18.967Z,2.85
2019-04-14T03:52:19.534Z,2.89
2019-04-14T03:53:28.938Z,2.76
2019-04-14T03:54:12.366Z,2.76
2019-04-14T03:55:10.089Z,2.88
2019-04-14T03:55:55.760Z,2.76
2019-04-14T03:56:49.254Z,2.77
2019-04-14T03:57:49.776Z,2.76
2019-04-14T03:58:48.990Z,2.82
2019-04-14T03:59:49.972Z,2.74
2019-04-14T04:00:49.235Z,2.79
2019-04-14T04:01:49.952Z,2.84
2019-04-14T04:02:48.884Z,2.85
2019-04-14T04:03:49.959Z,2.79
2019-04-14T04:04:48.899Z,2.84
2019-04-14T04:05:49.883Z,2.82
2019-04-14T04:06:48.792Z,2.77
2019-04-14T04:07:49.547Z,2.82
2019-04-14T04:08:48.738Z,2.74
2019-04-14T04:09:49.646Z,2.76
2019-04-14T04:10:48.737Z,2.81
2019-04-14T04:11:49.745Z,2.69
2019-04-14T04:12:48.719Z,2.73
2019-04-14T04:13:49.851Z,2.73
2019-04-14T04:14:48.611Z,2.69
2019-04-14T04:15:49.751Z,2.67
2019-04-14T04:16:48.547Z,2.69
2019-04-14T04:17:49.439Z,2.67
2019-04-14T04:18:58.875Z,2.67
2019-04-14T04:19:49.159Z,2.56
2019-04-14T04:20:48.447Z,2.56
2019-04-14T04:21:48.816Z,2.49
2019-04-14T04:22:48.392Z,2.55
2019-04-14T04:23:48.945Z,2.55
2019-04-14T04:24:48.352Z,2.46
2019-04-14T04:25:48.650Z,2.40
2019-04-14T04:26:48.294Z,2.40
2019-04-14T04:27:48.374Z,2.35
2019-04-14T04:28:48.250Z,2.41
2019-04-14T04:29:48.421Z,2.41
2019-04-14T04:30:49.364Z,2.44
2019-04-14T04:31:48.341Z,2.34
2019-04-14T04:32:49.284Z,2.35
2019-04-14T04:33:48.123Z,2.31
2019-04-14T04:34:49.086Z,2.34
2019-04-14T04:35:48.075Z,2.37
2019-04-14T04:36:48.754Z,2.37
2019-04-14T04:37:48.030Z,2.49
2019-04-14T04:38:48.777Z,2.48
2019-04-14T04:39:47.982Z,2.56
2019-04-14T04:40:48.588Z,2.55
2019-04-14T04:41:47.928Z,2.58
2019-04-14T04:42:48.371Z,2.53
2019-04-14T04:43:47.895Z,2.51
2019-04-14T04:44:48.777Z,2.59
2019-04-14T04:45:47.827Z,2.56
2019-04-14T04:46:48.403Z,2.48
2019-04-14T04:47:49.099Z,2.46
2019-04-14T04:49:00.045Z,2.49
2019-04-14T04:49:48.922Z,2.48
2019-04-14T04:50:47.786Z,2.55
2019-04-14T04:51:48.651Z,2.41
2019-04-14T04:52:47.657Z,2.37
2019-04-14T04:53:48.341Z,2.37
2019-04-14T04:54:47.614Z,2.35
2019-04-14T04:55:48.101Z,2.38
2019-04-14T04:56:47.558Z,2.40
2019-04-14T04:57:48.163Z,2.38
2019-04-14T04:58:48.053Z,2.44
2019-04-14T04:59:47.496Z,2.41
2019-04-14T05:00:51.007Z,2.44
2019-04-14T05:01:47.447Z,2.44
2019-04-14T05:02:48.460Z,2.49
2019-04-14T05:03:47.397Z,2.40
2019-04-14T05:04:48.366Z,2.48
2019-04-14T05:05:47.351Z,2.51
2019-04-14T05:06:48.320Z,2.56
2019-04-14T05:07:47.294Z,2.56
2019-04-14T05:08:48.073Z,2.53
2019-04-14T05:09:47.246Z,2.52
2019-04-14T05:10:48.125Z,2.55
2019-04-14T05:11:47.202Z,2.58
2019-04-14T05:12:47.972Z,2.61
2019-04-14T05:13:47.146Z,2.61
2019-04-14T05:14:47.969Z,2.67
2019-04-14T05:15:47.102Z,2.69
2019-04-14T05:16:47.077Z,2.70
2019-04-14T05:17:47.379Z,2.71
2019-04-14T05:18:47.020Z,2.74
2019-04-14T05:19:47.551Z,2.84
2019-04-14T05:20:46.972Z,2.74
2019-04-14T05:21:47.415Z,2.88
2019-04-14T05:22:46.930Z,2.94
2019-04-14T05:23:47.400Z,2.95
2019-04-14T05:24:46.874Z,3.05
2019-04-14T05:25:47.386Z,3.12
2019-04-14T05:26:46.846Z,3.10
2019-04-14T05:27:47.358Z,3.20
2019-04-14T05:28:46.782Z,3.24
2019-04-14T05:29:47.227Z,3.27
2019-04-14T05:30:46.728Z,3.39
2019-04-14T05:31:46.859Z,3.40
2019-04-14T05:32:47.724Z,3.40
2019-04-14T05:33:46.910Z,3.53
2019-04-14T05:34:47.829Z,3.65
2019-04-14T05:35:46.718Z,3.70
2019-04-14T05:36:47.631Z,3.65
2019-04-14T05:37:46.568Z,3.64
2019-04-14T05:38:47.437Z,3.67
2019-04-14T05:39:46.510Z,3.78
2019-04-14T05:40:47.503Z,3.82
2019-04-14T05:41:57.061Z,3.53
2019-04-14T05:42:47.318Z,3.60
2019-04-14T05:43:52.027Z,3.54
2019-04-14T05:44:47.122Z,3.65
2019-04-14T05:45:46.372Z,3.67
2019-04-14T05:46:47.002Z,3.80
2019-04-14T05:47:46.320Z,3.72
2019-04-14T05:48:47.116Z,3.75
2019-04-14T05:49:50.067Z,3.71
2019-04-14T05:50:46.875Z,3.76
2019-04-14T05:51:46.231Z,3.85
2019-04-14T05:52:47.134Z,3.88
2019-04-14T05:53:46.178Z,3.78
2019-04-14T05:54:47.106Z,3.79
2019-04-14T05:55:46.168Z,3.75
2019-04-14T05:56:47.063Z,3.82
2019-04-14T05:57:46.087Z,3.89
2019-04-14T05:58:47.084Z,4.10
2019-04-14T05:59:46.250Z,4.21
2019-04-14T06:00:46.379Z,4.26
2019-04-14T06:01:46.529Z,4.36
2019-04-14T06:02:46.316Z,4.43
2019-04-14T06:03:45.940Z,4.61
2019-04-14T06:04:46.129Z,4.64
2019-04-14T06:05:45.897Z,4.67
2019-04-14T06:06:45.866Z,5.01
2019-04-14T06:07:45.853Z,5.25
2019-04-14T06:08:45.828Z,5.32
2019-04-14T06:09:45.795Z,5.60
2019-04-14T06:10:45.773Z,5.53
2019-04-14T06:11:45.749Z,5.32
2019-04-14T06:12:45.726Z,5.19
2019-04-14T06:13:45.711Z,5.22
2019-04-14T06:14:45.682Z,5.07
2019-04-14T06:15:45.653Z,4.95
2019-04-14T06:16:45.631Z,4.98
2019-04-14T06:17:45.605Z,5.12
2019-04-14T06:18:45.621Z,5.14
2019-04-14T06:19:45.561Z,5.30
2019-04-14T06:20:45.543Z,5.64
2019-04-14T06:21:45.511Z,6.04
2019-04-14T06:22:45.489Z,6.44
2019-04-14T06:23:45.492Z,6.79
2019-04-14T06:24:45.443Z,7.05
2019-04-14T06:25:45.431Z,6.94
2019-04-14T06:26:45.402Z,7.09
2019-04-14T06:27:45.382Z,7.17
2019-04-14T06:28:45.362Z,7.29
2019-04-14T06:29:45.329Z,7.42
2019-04-14T06:30:45.310Z,7.49
2019-04-14T06:31:45.283Z,7.27
2019-04-14T06:32:45.268Z,7.17
2019-04-14T06:33:45.236Z,7.24
2019-04-14T06:34:45.220Z,7.26
2019-04-14T06:35:45.199Z,7.31
2019-04-14T06:36:45.172Z,7.17
2019-04-14T06:37:45.153Z,7.07
2019-04-14T06:38:45.138Z,7.08
2019-04-14T06:39:45.105Z,6.99
2019-04-14T06:40:45.083Z,6.80
2019-04-14T06:41:45.054Z,6.59
2019-04-14T06:42:45.043Z,6.62
2019-04-14T06:43:49.043Z,6.51
2019-04-14T06:44:44.992Z,6.58
2019-04-14T06:45:44.967Z,6.68
2019-04-14T06:46:44.943Z,6.47
2019-04-14T06:47:44.922Z,6.51
2019-04-14T06:48:44.901Z,6.26
2019-04-14T06:49:49.255Z,6.06
2019-04-14T06:50:46.462Z,6.07
2019-04-14T06:51:44.831Z,6.03
2019-04-14T06:52:44.810Z,6.01
2019-04-14T06:53:44.786Z,6.06
2019-04-14T06:54:44.767Z,6.04
2019-04-14T06:55:44.745Z,6.09
2019-04-14T06:56:44.725Z,5.95
2019-04-14T06:57:44.701Z,5.89
2019-04-14T06:58:44.672Z,5.88
2019-04-14T06:59:44.659Z,5.86
2019-04-14T07:00:44.627Z,5.81
2019-04-14T07:01:44.612Z,5.74
2019-04-14T07:02:45.561Z,5.77
2019-04-14T07:03:44.566Z,5.95
2019-04-14T07:04:44.539Z,6.03
2019-04-14T07:05:44.526Z,6.19
2019-04-14T07:06:44.491Z,6.18
2019-04-14T07:07:56.149Z,6.35
2019-04-14T07:08:44.456Z,6.35
2019-04-14T07:09:44.449Z,6.61
2019-04-14T07:10:44.402Z,6.66
2019-04-14T07:11:44.383Z,7.07
2019-04-14T07:12:44.357Z,7.24
2019-04-14T07:13:48.032Z,7.23
2019-04-14T07:14:44.321Z,7.41
2019-04-14T07:15:44.297Z,7.72
2019-04-14T07:16:44.290Z,7.97
2019-04-14T07:17:44.244Z,8.08
2019-04-14T07:18:44.230Z,8.33
2019-04-14T07:19:44.259Z,8.60
2019-04-14T07:20:44.179Z,8.62
2019-04-14T07:21:44.166Z,8.51
2019-04-14T07:22:44.140Z,8.55
2019-04-14T07:23:44.111Z,8.12
2019-04-14T07:24:44.088Z,7.92
2019-04-14T07:25:44.066Z,7.72
2019-04-14T07:26:44.059Z,7.99
2019-04-14T07:27:44.026Z,8.51
2019-04-14T07:28:55.980Z,8.88
2019-04-14T07:29:43.989Z,9.01
2019-04-14T07:30:43.964Z,9.23
2019-04-14T07:31:43.940Z,9.50
2019-04-14T07:32:43.918Z,9.40
2019-04-14T07:33:43.895Z,9.70
2019-04-14T07:34:43.882Z,9.71
2019-04-14T07:35:43.854Z,10.10
2019-04-14T07:36:43.838Z,10.07
2019-04-14T07:37:43.819Z,10.33
2019-04-14T07:38:43.801Z,10.19
2019-04-14T07:39:43.774Z,10.00
2019-04-14T07:40:43.751Z,9.60
2019-04-14T07:41:43.734Z,9.66
2019-04-14T07:42:43.709Z,9.83
2019-04-14T07:43:43.699Z,10.15
2019-04-14T07:44:43.700Z,10.24
2019-04-14T07:45:43.668Z,10.25
2019-04-14T07:46:43.645Z,10.15
2019-04-14T07:47:43.610Z,10.44
2019-04-14T07:48:43.594Z,10.36
2019-04-14T07:49:43.566Z,10.21
2019-04-14T07:50:43.546Z,10.12
2019-04-14T07:51:43.527Z,10.03
2019-04-14T07:52:43.514Z,10.12
2019-04-14T07:53:43.491Z,10.21
2019-04-14T07:54:43.468Z,10.17
2019-04-14T07:55:43.447Z,10.07
2019-04-14T07:56:43.428Z,10.01
2019-04-14T07:57:43.415Z,9.82
2019-04-14T07:58:43.386Z,9.85
2019-04-14T07:59:43.417Z,10.10
2019-04-14T08:00:43.370Z,10.24
2019-04-14T08:01:43.329Z,10.56
2019-04-14T08:02:43.312Z,10.91
2019-04-14T08:03:43.303Z,11.10
2019-04-14T08:04:43.267Z,10.44
2019-04-14T08:05:43.244Z,10.24
2019-04-14T08:06:43.232Z,10.36
2019-04-14T08:07:43.216Z,10.51
2019-04-14T08:08:43.191Z,10.80
2019-04-14T08:09:43.171Z,10.98
2019-04-14T08:10:43.147Z,10.86
2019-04-14T08:11:43.128Z,11.07
2019-04-14T08:12:43.113Z,11.16
2019-04-14T08:13:43.091Z,10.56
2019-04-14T08:14:43.071Z,10.37
2019-04-14T08:15:43.048Z,10.39
2019-04-14T08:16:43.044Z,10.80
2019-04-14T08:17:43.715Z,10.62
2019-04-14T08:18:42.987Z,10.33
2019-04-14T08:19:42.971Z,10.18
2019-04-14T08:20:42.969Z,9.60
2019-04-14T08:21:42.931Z,9.64
2019-04-14T08:22:42.915Z,9.79
2019-04-14T08:23:42.898Z,9.97
2019-04-14T08:24:42.927Z,10.06
2019-04-14T08:25:42.854Z,10.32
2019-04-14T08:26:42.837Z,10.32
2019-04-14T08:27:42.825Z,10.80
2019-04-14T08:28:42.789Z,10.73
2019-04-14T08:29:42.786Z,10.58
2019-04-14T08:30:42.751Z,10.19
2019-04-14T08:31:42.732Z,9.58
2019-04-14T08:32:42.715Z,9.23
2019-04-14T08:33:42.693Z,9.23
2019-04-14T08:34:42.677Z,9.39
2019-04-14T08:35:42.664Z,9.61
2019-04-14T08:36:42.636Z,9.61
2019-04-14T08:37:42.611Z,9.66
2019-04-14T08:38:42.594Z,9.56
2019-04-14T08:39:42.578Z,9.38
2019-04-14T08:40:42.550Z,9.39
2019-04-14T08:41:42.531Z,9.48
2019-04-14T08:42:42.534Z,9.56
2019-04-14T08:43:42.498Z,10.03
2019-04-14T08:44:42.476Z,9.85
2019-04-14T08:45:42.451Z,9.97
2019-04-14T08:46:42.428Z,10.03
2019-04-14T08:47:42.410Z,9.93
2019-04-14T08:48:42.417Z,9.82
2019-04-14T08:49:42.375Z,9.83
2019-04-14T08:50:42.351Z,9.81
2019-04-14T08:51:42.337Z,9.83
2019-04-14T08:52:42.307Z,9.67
2019-04-14T08:53:42.337Z,9.83
2019-04-14T08:54:42.282Z,10.01
2019-04-14T08:55:42.246Z,10.06
2019-04-14T08:56:42.228Z,9.91
2019-04-14T08:57:42.208Z,9.61
2019-04-14T08:58:42.189Z,9.45
2019-04-14T08:59:42.164Z,9.43
2019-04-14T09:00:42.151Z,9.53
2019-04-14T09:01:42.134Z,9.88
2019-04-14T09:02:42.101Z,10.24
2019-04-14T09:03:42.085Z,10.39
2019-04-14T09:04:42.067Z,10.32
2019-04-14T09:05:42.044Z,10.34
2019-04-14T09:06:42.025Z,10.53
2019-04-14T09:07:42.006Z,10.52
2019-04-14T09:08:41.983Z,10.59
2019-04-14T09:09:41.996Z,10.83
2019-04-14T09:10:41.950Z,10.83
2019-04-14T09:11:41.923Z,10.68
2019-04-14T09:12:41.911Z,10.70
2019-04-14T09:13:41.919Z,10.70
2019-04-14T09:14:41.869Z,10.94
2019-04-14T09:15:41.850Z,11.01
2019-04-14T09:16:41.828Z,10.63
2019-04-14T09:17:41.813Z,10.66
2019-04-14T09:18:41.794Z,10.56
2019-04-14T09:19:41.786Z,10.70
2019-04-14T09:20:51.687Z,10.94
2019-04-14T09:21:41.724Z,11.68
2019-04-14T09:22:41.705Z,12.46
2019-04-14T09:23:41.693Z,12.57
2019-04-14T09:24:41.670Z,12.56
2019-04-14T09:25:51.628Z,12.19
2019-04-14T09:26:51.593Z,12.31
2019-04-14T09:27:51.574Z,12.42
2019-04-14T09:28:51.554Z,12.51
2019-04-14T09:29:52.451Z,12.77
2019-04-14T09:30:51.517Z,12.23
2019-04-14T09:31:51.505Z,12.67
2019-04-14T09:32:51.485Z,12.95
2019-04-14T09:33:51.463Z,13.04
2019-04-14T09:34:51.440Z,13.37
2019-04-14T09:35:51.418Z,13.54
2019-04-14T09:36:51.458Z,13.38
2019-04-14T09:37:51.384Z,13.67
2019-04-14T09:38:51.364Z,13.74
2019-04-14T09:39:51.344Z,13.32
2019-04-14T09:40:51.326Z,13.37
2019-04-14T09:41:51.315Z,13.40
2019-04-14T09:42:51.292Z,13.49
2019-04-14T09:43:51.293Z,13.63
2019-04-14T09:44:51.254Z,13.18
2019-04-14T09:45:51.235Z,13.06
2019-04-14T09:46:51.215Z,13.21
2019-04-14T09:47:51.203Z,13.46
2019-04-14T09:48:51.184Z,13.56
2019-04-14T09:49:51.168Z,13.92
2019-04-14T09:50:51.150Z,14.42
2019-04-14T09:51:51.128Z,14.42
2019-04-14T09:52:51.134Z,14.19
2019-04-14T09:53:51.097Z,13.94
2019-04-14T09:54:51.082Z,14.16
2019-04-14T09:55:51.061Z,14.02
2019-04-14T09:56:51.054Z,14.10
2019-04-14T09:57:51.026Z,13.89
2019-04-14T09:58:51.010Z,13.81
2019-04-14T09:59:50.997Z,14.34
2019-04-14T10:00:50.974Z,14.56
2019-04-14T10:01:50.958Z,14.10
2019-04-14T10:02:50.950Z,14.20
2019-04-14T10:03:50.929Z,14.49
2019-04-14T10:04:50.910Z,14.20
2019-04-14T10:05:50.891Z,14.12
2019-04-14T10:06:51.135Z,14.32
2019-04-14T10:07:50.865Z,14.07
2019-04-14T10:08:50.847Z,14.28
2019-04-14T10:09:50.830Z,14.60
2019-04-14T10:10:50.881Z,14.28
2019-04-14T10:11:53.677Z,13.89
2019-04-14T10:12:50.796Z,13.95
2019-04-14T10:13:50.776Z,14.34
2019-04-14T10:14:50.753Z,14.78
2019-04-14T10:15:50.758Z,14.99
2019-04-14T10:16:50.740Z,14.68
2019-04-14T10:17:50.716Z,14.16
2019-04-14T10:18:50.696Z,14.16
2019-04-14T10:19:50.679Z,13.84
2019-04-14T10:20:50.677Z,14.01
2019-04-14T10:21:50.651Z,14.52
2019-04-14T10:22:50.638Z,14.94
2019-04-14T10:23:50.628Z,15.26
2019-04-14T10:24:50.609Z,15.42
2019-04-14T10:25:50.618Z,15.38
2019-04-14T10:26:50.625Z,15.03
2019-04-14T10:27:50.590Z,14.99
2019-04-14T10:28:50.880Z,15.06
2019-04-14T10:29:50.565Z,14.91
2019-04-14T10:30:50.548Z,15.03
2019-04-14T10:31:50.525Z,15.05
2019-04-14T10:32:50.511Z,14.88
2019-04-14T10:33:50.497Z,15.06
2019-04-14T10:34:50.493Z,15.26
2019-04-14T10:35:50.491Z,15.11
2019-04-14T10:36:50.526Z,14.60
2019-04-14T10:37:50.447Z,14.49
2019-04-14T10:38:50.437Z,14.57
2019-04-14T10:39:50.429Z,14.62
2019-04-14T10:40:50.407Z,14.27
2019-04-14T10:41:50.397Z,14.72
2019-04-14T10:42:50.411Z,14.94
2019-04-14T10:43:50.374Z,15.23
2019-04-14T10:44:50.373Z,15.09
2019-04-14T10:45:50.345Z,14.84
2019-04-14T10:46:50.332Z,14.68
2019-04-14T10:47:50.329Z,14.83
2019-04-14T10:48:50.309Z,14.38
2019-04-14T10:49:50.309Z,14.28
2019-04-14T10:50:50.290Z,14.29
2019-04-14T10:51:50.314Z,14.29
2019-04-14T10:52:50.269Z,14.80
2019-04-14T10:53:50.255Z,15.09
2019-04-14T10:54:50.258Z,15.19
2019-04-14T10:55:50.236Z,14.62
2019-04-14T10:56:50.251Z,14.81
2019-04-14T10:57:50.214Z,14.20
2019-04-14T10:58:50.220Z,14.13
2019-04-14T10:59:50.200Z,14.21
2019-04-14T11:00:50.184Z,14.71
2019-04-14T11:01:50.175Z,15.11
2019-04-14T11:02:50.172Z,15.59
2019-04-14T11:03:50.169Z,15.41
2019-04-14T11:04:50.147Z,15.02
2019-04-14T11:05:50.143Z,14.93
2019-04-14T11:06:50.140Z,14.95
2019-04-14T11:07:50.118Z,15.33
2019-04-14T11:08:50.112Z,15.74
2019-04-14T11:09:50.106Z,15.64
2019-04-14T11:10:50.144Z,15.12
2019-04-14T11:11:50.076Z,14.99
2019-04-14T11:12:50.076Z,14.91
2019-04-14T11:13:50.081Z,14.75
2019-04-14T11:14:50.051Z,14.78
2019-04-14T11:15:50.054Z,14.91
2019-04-14T11:16:50.036Z,14.86
2019-04-14T11:17:50.025Z,14.69
2019-04-14T11:18:50.035Z,14.67
2019-04-14T11:19:50.012Z,14.95
2019-04-14T11:20:50.002Z,15.20
2019-04-14T11:21:49.996Z,15.60
2019-04-14T11:23:02.483Z,15.36
2019-04-14T11:23:49.993Z,15.30
2019-04-14T11:24:49.974Z,15.13
2019-04-14T11:25:49.968Z,14.93
2019-04-14T11:26:49.964Z,14.61
2019-04-14T11:27:49.954Z,14.88
2019-04-14T11:28:49.943Z,14.65
2019-04-14T11:29:53.844Z,14.60
2019-04-14T11:30:49.926Z,14.93
2019-04-14T11:31:49.940Z,15.13
2019-04-14T11:32:49.924Z,15.42
2019-04-14T11:33:49.907Z,15.43
2019-04-14T11:34:49.890Z,15.27
2019-04-14T11:35:49.880Z,15.01
2019-04-14T11:36:49.872Z,15.03
2019-04-14T11:37:49.887Z,15.01
2019-04-14T11:38:49.873Z,15.03
2019-04-14T11:39:49.856Z,15.17
2019-04-14T11:40:49.843Z,15.02
2019-04-14T11:41:49.850Z,15.42
2019-04-14T11:42:52.622Z,15.41
2019-04-14T11:43:49.825Z,15.24
2019-04-14T11:44:49.829Z,15.06
2019-04-14T11:45:49.830Z,15.01
2019-04-14T11:46:49.808Z,14.93
2019-04-14T11:47:49.814Z,15.06
2019-04-14T11:48:49.802Z,15.13
2019-04-14T11:49:49.789Z,14.64
2019-04-14T11:50:49.852Z,14.52
2019-04-14T11:51:55.575Z,14.68
2019-04-14T11:52:49.782Z,14.81
2019-04-14T11:53:49.776Z,15.12
2019-04-14T11:54:49.756Z,15.13
2019-04-14T11:55:49.757Z,15.21
2019-04-14T11:56:49.746Z,15.31
2019-04-14T11:57:49.746Z,15.36
2019-04-14T11:58:50.226Z,15.33
2019-04-14T11:59:49.731Z,15.46
2019-04-14T12:00:49.720Z,15.35
2019-04-14T12:01:49.717Z,15.74
2019-04-14T12:02:49.716Z,15.70
2019-04-14T12:03:49.703Z,15.61
2019-04-14T12:04:49.693Z,15.49
2019-04-14T12:05:49.689Z,15.61
2019-04-14T12:06:49.680Z,15.24
2019-04-14T12:07:49.684Z,15.13
2019-04-14T12:08:49.665Z,15.30
2019-04-14T12:09:49.659Z,15.27
2019-04-14T12:10:49.655Z,15.28
2019-04-14T12:11:49.658Z,15.26
2019-04-14T12:12:49.643Z,15.68
2019-04-14T12:13:49.639Z,15.70
2019-04-14T12:14:49.636Z,15.93
2019-04-14T12:15:49.652Z,15.82
2019-04-14T12:16:49.635Z,15.84
2019-04-14T12:17:49.616Z,16.01
2019-04-14T12:18:49.608Z,16.27
2019-04-14T12:19:49.599Z,16.42
2019-04-14T12:20:49.594Z,16.34
2019-04-14T12:21:49.595Z,15.92
2019-04-14T12:22:49.588Z,15.64
2019-04-14T12:23:49.575Z,15.31
2019-04-14T12:24:49.575Z,14.84
2019-04-14T12:25:49.569Z,14.54
2019-04-14T12:26:49.553Z,14.42
2019-04-14T12:27:49.555Z,14.25
2019-04-14T12:28:49.538Z,14.10
2019-04-14T12:29:50.063Z,14.10
2019-04-14T12:30:49.534Z,14.14
2019-04-14T12:31:49.896Z,14.02
2019-04-14T12:32:49.515Z,13.96
2019-04-14T12:33:49.508Z,14.02
2019-04-14T12:34:49.483Z,14.32
2019-04-14T12:35:49.476Z,14.80
2019-04-14T12:36:49.492Z,15.06
2019-04-14T12:37:49.451Z,15.56
2019-04-14T12:38:49.449Z,16.16
2019-04-14T12:39:49.450Z,16.70
2019-04-14T12:40:49.456Z,16.31
2019-04-14T12:41:49.416Z,16.41
2019-04-14T12:42:49.444Z,16.30
2019-04-14T12:43:49.400Z,16.04
2019-04-14T12:44:49.398Z,16.33
2019-04-14T12:45:49.387Z,16.11
2019-04-14T12:46:49.394Z,15.70
2019-04-14T12:47:49.376Z,15.49
2019-04-14T12:48:49.382Z,15.31
2019-04-14T12:49:49.356Z,15.52
2019-04-14T12:50:49.349Z,15.23
2019-04-14T12:51:49.341Z,14.99
2019-04-14T12:52:49.338Z,15.02
2019-04-14T12:53:49.331Z,14.90
2019-04-14T12:54:49.314Z,15.01
2019-04-14T12:55:49.308Z,15.12
2019-04-14T12:56:49.302Z,15.13
2019-04-14T12:57:49.293Z,15.12
2019-04-14T12:58:49.290Z,15.13
2019-04-14T12:59:49.267Z,15.38
2019-04-14T13:00:49.278Z,15.57
2019-04-14T13:01:49.255Z,15.36
2019-04-14T13:02:49.247Z,14.94
2019-04-14T13:03:49.249Z,14.60
2019-04-14T13:04:49.226Z,14.39
2019-04-14T13:05:49.223Z,14.43
2019-04-14T13:06:49.197Z,14.62
2019-04-14T13:07:49.194Z,14.98
2019-04-14T13:08:49.185Z,15.64
2019-04-14T13:09:49.171Z,15.66
2019-04-14T13:10:49.188Z,15.81
2019-04-14T13:11:49.162Z,15.51
2019-04-14T13:12:49.144Z,15.26
2019-04-14T13:13:49.128Z,14.94
2019-04-14T13:14:49.124Z,14.88
2019-04-14T13:15:49.112Z,14.84
2019-04-14T13:16:49.099Z,14.81
2019-04-14T13:17:49.086Z,14.52
2019-04-14T13:18:49.070Z,14.21
2019-04-14T13:19:49.083Z,13.99
2019-04-14T13:20:49.066Z,13.94
2019-04-14T13:21:49.046Z,13.71
2019-04-14T13:22:49.031Z,13.55
2019-04-14T13:23:49.019Z,13.51
2019-04-14T13:24:49.077Z,13.52
2019-04-14T13:25:48.998Z,13.55
2019-04-14T13:26:48.988Z,13.47